General Aviation Weather

Text Reports

Enter one or more of the following location identifiers separated by a space:

Zip Code, Four-Character ICAO or Three-Character IATA airport codes.

METAR - Aviation Routine Weather Report
PAIK - Kiana, Alaska
Updated at 6:01 PM GMT op 18 april 2014 (10:01 AM AKDT):
METAR PAIK 181801Z AUTO 06007KT 10SM OVC075 M01/M05 A2958 RMK AO2 SLP057 60000 T10111050 11011 21033 51004 FZRANO
TAF - Terminal Area Forecast
PAIK - Kiana, Alaska
Updated at 6:01 PM GMT op 18 april 2014 (10:01 AM AKDT):
No TAF is currently available for this location.
Decoded:
No decoded TAF is available.
PIREP - Pilot Weather Report
PAIK - Kiana, Alaska
Updated at 6:01 PM GMT op 18 april 2014 (10:01 AM AKDT):
No PIREP is currently available for this location.
AIRMET - Airmens Meteorological Information
PAIK - Kiana, Alaska
Updated at 6:01 PM GMT op 18 april 2014 (10:01 AM AKDT):
No AIRMET is currently available for this location.
SIGMET - Significant Meteorological Information
PAIK - Kiana, Alaska
Updated at 6:01 PM GMT op 18 april 2014 (10:01 AM AKDT):
No SIGMET is currently available for this location.
NOTAM - Notice to Airmen
PAIK - Kiana, Alaska
Updated at 6:01 PM GMT op 18 april 2014 (10:01 AM AKDT):
No NOTAM is currently available for this location.
Forecast Area
PAIK - Kiana, Alaska
Updated at 6:01 PM GMT op 18 april 2014 (10:01 AM AKDT):
No NOTAM is currently available for this location.
Aviation Weather Maps